地図

経路データ

SID SEASON NUMBER BASIN SUBBASIN NAME ISO_TIME NATURE LAT LON WMO_WIND WMO_PRES WMO_AGENCY TRACK_TYPE DIST2LAND LANDFALL IFLAG USA_AGENCY USA_ATCF_ID USA_LAT USA_LON USA_RECORD USA_STATUS USA_WIND USA_PRES USA_SSHS USA_R34_NE USA_R34_SE USA_R34_SW USA_R34_NW USA_R50_NE USA_R50_SE USA_R50_SW USA_R50_NW USA_R64_NE USA_R64_SE USA_R64_SW USA_R64_NW USA_POCI USA_ROCI USA_RMW USA_EYE TOKYO_LAT TOKYO_LON TOKYO_GRADE TOKYO_WIND TOKYO_PRES TOKYO_R50_DIR TOKYO_R50_LONG TOKYO_R50_SHORT TOKYO_R30_DIR TOKYO_R30_LONG TOKYO_R30_SHORT TOKYO_LAND CMA_LAT CMA_LON CMA_CAT CMA_WIND CMA_PRES HKO_LAT HKO_LON HKO_CAT HKO_WIND HKO_PRES NEWDELHI_LAT NEWDELHI_LON NEWDELHI_GRADE NEWDELHI_WIND NEWDELHI_PRES NEWDELHI_CI NEWDELHI_DP NEWDELHI_POCI REUNION_LAT REUNION_LON REUNION_TYPE REUNION_WIND REUNION_PRES REUNION_TNUM REUNION_CI REUNION_RMW REUNION_R34_NE REUNION_R34_SE REUNION_R34_SW REUNION_R34_NW REUNION_R50_NE REUNION_R50_SE REUNION_R50_SW REUNION_R50_NW REUNION_R64_NE REUNION_R64_SE REUNION_R64_SW REUNION_R64_NW BOM_LAT BOM_LON BOM_TYPE BOM_WIND BOM_PRES BOM_TNUM BOM_CI BOM_RMW BOM_R34_NE BOM_R34_SE BOM_R34_SW BOM_R34_NW BOM_R50_NE BOM_R50_SE BOM_R50_SW BOM_R50_NW BOM_R64_NE BOM_R64_SE BOM_R64_SW BOM_R64_NW BOM_ROCI BOM_POCI BOM_EYE BOM_POS_METHOD BOM_PRES_METHOD NADI_LAT NADI_LON NADI_CAT NADI_WIND NADI_PRES WELLINGTON_LAT WELLINGTON_LON WELLINGTON_WIND WELLINGTON_PRES DS824_LAT DS824_LON DS824_STAGE DS824_WIND DS824_PRES TD9636_LAT TD9636_LON TD9636_STAGE TD9636_WIND TD9636_PRES TD9635_LAT TD9635_LON TD9635_WIND TD9635_PRES TD9635_ROCI NEUMANN_LAT NEUMANN_LON NEUMANN_CLASS NEUMANN_WIND NEUMANN_PRES MLC_LAT MLC_LON MLC_CLASS MLC_WIND MLC_PRES USA_GUST BOM_GUST BOM_GUST_PER REUNION_GUST REUNION_GUST_PER USA_SEAHGT USA_SEARAD_NE USA_SEARAD_SE USA_SEARAD_SW USA_SEARAD_NW STORM_SPEED STORM_DIR
1939220N17145 1939 47 WP MM NOT_NAMED 1939-08-08 10:00:00 NR 17.1000 144.800 main 2030 2007 __________O___ -1 17.1000 144.800 7 9 286
1939220N17145 1939 47 WP MM NOT_NAMED 1939-08-08 12:00:00 NR 17.1796 144.512 main 2007 1980 __________P___ -1 17.1796 144.512 7 9 286
1939220N17145 1939 47 WP MM NOT_NAMED 1939-08-08 15:00:00 NR 17.3000 144.080 main 1980 1953 __________P___ -1 17.3000 144.080 7 9 287
1939220N17145 1939 47 WP MM NOT_NAMED 1939-08-08 18:00:00 NR 17.4241 143.654 main 1953 1913 __________P___ -1 17.4241 143.654 7 8 288
1939220N17145 1939 47 WP MM NOT_NAMED 1939-08-08 21:00:00 NR 17.5546 143.237 main 1913 1909 __________P___ -1 17.5546 143.237 7 8 288
1939220N17145 1939 47 WP MM NOT_NAMED 1939-08-08 22:00:00 NR 17.6000 143.100 main 1909 1887 __________O___ -1 17.6000 143.100 7 8 290
1939220N17145 1939 47 WP MM NOT_NAMED 1939-08-09 00:00:00 NR 17.6936 142.830 main 1887 1862 __________P___ -1 17.6936 142.830 7 8 290
1939220N17145 1939 47 WP MM NOT_NAMED 1939-08-09 03:00:00 NR 17.8343 142.432 main 1862 1827 __________P___ -1 17.8343 142.432 7 8 290
1939220N17145 1939 47 WP MM NOT_NAMED 1939-08-09 06:00:00 NR 17.9645 142.036 main 1827 1803 __________P___ -1 17.9645 142.036 7 8 287
1939220N17145 1939 47 WP MM NOT_NAMED 1939-08-09 09:00:00 NR 18.0716 141.636 main 1803 1799 __________P___ -1 18.0716 141.636 7 8 285
1939220N17145 1939 47 WP MM NOT_NAMED 1939-08-09 10:00:00 NR 18.1000 141.500 main 1799 1782 __________O___ -1 18.1000 141.500 7 8 281
1939220N17145 1939 47 WP MM NOT_NAMED 1939-08-09 12:00:00 NR 18.1416 141.240 main 1782 1751 __________P___ -1 18.1416 141.240 7 8 277
1939220N17145 1939 47 WP MM NOT_NAMED 1939-08-09 15:00:00 NR 18.1791 140.846 main 1751 1730 __________P___ -1 18.1791 140.846 7 8 274
1939220N17145 1939 47 WP MM NOT_NAMED 1939-08-09 18:00:00 NR 18.1953 140.427 main 1730 1694 __________P___ -1 18.1953 140.427 7 8 271
1939220N17145 1939 47 WP MM NOT_NAMED 1939-08-09 21:00:00 NR 18.1996 139.966 main 1694 1674 __________P___ -1 18.1996 139.966 7 9 270
1939220N17145 1939 47 WP MM NOT_NAMED 1939-08-09 22:00:00 NR 18.2000 139.800 main 1674 1635 __________O___ -1 18.2000 139.800 7 10 271
1939220N17145 1939 47 WP MM NOT_NAMED 1939-08-10 00:00:00 NR 18.2057 139.443 main 1635 1586 __________P___ -1 18.2057 139.443 7 11 271
1939220N17145 1939 47 WP MM NOT_NAMED 1939-08-10 03:00:00 NR 18.2080 138.862 main 1586 1518 __________P___ -1 18.2080 138.862 7 11 270
1939220N17145 1939 47 WP MM NOT_NAMED 1939-08-10 06:00:00 NR 18.2054 138.246 main 1518 1461 __________P___ -1 18.2054 138.246 7 12 270
1939220N17145 1939 47 WP MM NOT_NAMED 1939-08-10 09:00:00 NR 18.2011 137.612 main 1461 1442 __________P___ -1 18.2011 137.612 7 12 270
1939220N17145 1939 47 WP MM NOT_NAMED 1939-08-10 10:00:00 NR 18.2000 137.400 main 1442 1404 __________O___ -1 18.2000 137.400 7 12 269
1939220N17145 1939 47 WP MM NOT_NAMED 1939-08-10 12:00:00 NR 18.1893 136.981 main 1404 1339 __________P___ -1 18.1893 136.981 7 12 268
1939220N17145 1939 47 WP MM NOT_NAMED 1939-08-10 15:00:00 NR 18.1733 136.346 main 1339 1283 __________P___ -1 18.1733 136.346 7 12 269
1939220N17145 1939 47 WP MM NOT_NAMED 1939-08-10 18:00:00 NR 18.1682 135.715 main 1283 1229 __________P___ -1 18.1682 135.715 7 12 271
1939220N17145 1939 47 WP MM NOT_NAMED 1939-08-10 21:00:00 NR 18.1865 135.099 main 1229 1211 __________P___ -1 18.1865 135.099 7 12 272
1939220N17145 1939 47 WP MM NOT_NAMED 1939-08-10 22:00:00 NR 18.2000 134.900 main 1211 1176 __________O___ -1 18.2000 134.900 7 11 274
1939220N17145 1939 47 WP MM NOT_NAMED 1939-08-11 00:00:00 NR 18.2251 134.506 main 1176 1128 __________P___ -1 18.2251 134.506 7 11 275
1939220N17145 1939 47 WP MM NOT_NAMED 1939-08-11 03:00:00 NR 18.2879 133.933 main 1128 1085 __________P___ -1 18.2879 133.933 7 11 279
1939220N17145 1939 47 WP MM NOT_NAMED 1939-08-11 06:00:00 NR 18.3892 133.385 main 1085 1043 __________P___ -1 18.3892 133.385 7 10 284
1939220N17145 1939 47 WP MM NOT_NAMED 1939-08-11 09:00:00 NR 18.5382 132.866 main 1043 1030 __________P___ -1 18.5382 132.866 7 10 288
1939220N17145 1939 47 WP MM NOT_NAMED 1939-08-11 10:00:00 NR 18.6000 132.700 main 1030 1008 __________O___ -1 18.6000 132.700 3 10 293
1939220N17145 1939 47 WP MM NOT_NAMED 1939-08-11 12:00:00 NR 18.7377 132.369 main 1008 982 __________P___ -1 18.7377 132.369 3 10 297
1939220N17145 1939 47 WP MM NOT_NAMED 1939-08-11 15:00:00 NR 18.9887 131.898 main 982 961 __________P___ -1 18.9887 131.898 3 10 302
1939220N17145 1939 47 WP MM NOT_NAMED 1939-08-11 18:00:00 NR 19.2790 131.455 main 968 924 __________P___ -1 19.2790 131.455 3 10 307
1939220N17145 1939 47 WP MM NOT_NAMED 1939-08-11 21:00:00 NR 19.5929 131.035 main 924 915 __________P___ -1 19.5929 131.035 3 10 309
1939220N17145 1939 47 WP MM NOT_NAMED 1939-08-11 22:00:00 NR 19.7000 130.900 main 915 887 __________O___ -1 19.7000 130.900 4 10 311
1939220N17145 1939 47 WP MM NOT_NAMED 1939-08-12 00:00:00 NR 19.9127 130.638 main 887 863 __________P___ -1 19.9127 130.638 4 10 312
1939220N17145 1939 47 WP MM NOT_NAMED 1939-08-12 03:00:00 NR 20.2448 130.264 main 863 830 __________P___ -1 20.2448 130.264 4 10 314
1939220N17145 1939 47 WP MM NOT_NAMED 1939-08-12 06:00:00 NR 20.5788 129.899 main 833 804 __________P___ -1 20.5788 129.899 4 10 314
1939220N17145 1939 47 WP MM NOT_NAMED 1939-08-12 09:00:00 NR 20.8990 129.528 main 804 797 __________P___ -1 20.8990 129.528 4 9 312
1939220N17145 1939 47 WP MM NOT_NAMED 1939-08-12 10:00:00 NR 21.0000 129.400 main 797 782 __________O___ -1 21.0000 129.400 4 9 309
1939220N17145 1939 47 WP MM NOT_NAMED 1939-08-12 12:00:00 NR 21.1804 129.156 main 786 757 __________P___ -1 21.1804 129.156 4 9 307
1939220N17145 1939 47 WP MM NOT_NAMED 1939-08-12 15:00:00 NR 21.4323 128.779 main 757 730 __________P___ -1 21.4323 128.779 4 9 304
1939220N17145 1939 47 WP MM NOT_NAMED 1939-08-12 18:00:00 NR 21.6734 128.363 main 734 678 __________P___ -1 21.6734 128.363 4 10 300
1939220N17145 1939 47 WP MM NOT_NAMED 1939-08-12 21:00:00 NR 21.9164 127.880 main 678 654 __________P___ -1 21.9164 127.880 4 10 298
1939220N17145 1939 47 WP MM NOT_NAMED 1939-08-12 22:00:00 NR 22.0000 127.700 main 654 607 __________O___ -1 22.0000 127.700 4 12 296
1939220N17145 1939 47 WP MM NOT_NAMED 1939-08-13 00:00:00 NR 22.1779 127.299 main 607 528 __________P___ -1 22.1779 127.299 4 13 294
1939220N17145 1939 47 WP MM NOT_NAMED 1939-08-13 03:00:00 NR 22.4509 126.627 main 528 454 __________P___ -1 22.4509 126.627 4 14 293
1939220N17145 1939 47 WP MM NOT_NAMED 1939-08-13 06:00:00 NR 22.7282 125.901 main 454 375 __________P___ -1 22.7282 125.901 4 15 292
1939220N17145 1939 47 WP MM NOT_NAMED 1939-08-13 09:00:00 NR 23.0071 125.150 main 375 342 __________P___ -1 23.0071 125.150 4 15 292
1939220N17145 1939 47 WP MM NOT_NAMED 1939-08-13 10:00:00 NR 23.1000 124.900 main 342 287 __________O___ -1 23.1000 124.900 4 15 292
1939220N17145 1939 47 WP MM NOT_NAMED 1939-08-13 12:00:00 NR 23.2996 124.381 main 287 199 __________P___ -1 23.2996 124.381 4 16 293
1939220N17145 1939 47 WP MM NOT_NAMED 1939-08-13 15:00:00 NR 23.5994 123.595 main 199 113 __________P___ -1 23.5994 123.595 4 15 293
1939220N17145 1939 47 WP MM NOT_NAMED 1939-08-13 18:00:00 NR 23.8821 122.847 main 113 52 __________P___ -1 23.8821 122.847 4 14 292
1939220N17145 1939 47 WP MM NOT_NAMED 1939-08-13 21:00:00 NR 24.1289 122.190 main 52 30 __________P___ -1 24.1289 122.190 4 13 292
1939220N17145 1939 47 WP MM NOT_NAMED 1939-08-13 22:00:00 NR 24.2000 122.000 main 30 0 __________O___ -1 24.2000 122.000 4 10 292
1939220N17145 1939 47 WP MM NOT_NAMED 1939-08-14 00:00:00 NR 24.3133 121.693 main 0 0 __________P___ -1 24.3133 121.693 4 8 292
1939220N17145 1939 47 WP MM NOT_NAMED 1939-08-14 03:00:00 NR 24.4469 121.335 main 0 0 __________P___ -1 24.4469 121.335 4 6 293
1939220N17145 1939 47 WP MM NOT_NAMED 1939-08-14 06:00:00 NR 24.5559 121.053 main 0 0 __________P___ -1 24.5559 121.053 4 5 293
1939220N17145 1939 47 WP MM NOT_NAMED 1939-08-14 09:00:00 NR 24.6618 120.792 main 10 10 __________P___ -1 24.6618 120.792 4 5 294
1939220N17145 1939 47 WP MM NOT_NAMED 1939-08-14 10:00:00 NR 24.7000 120.700 main 11 11 __________O___ -1 24.7000 120.700 4 7 296
1939220N17145 1939 47 WP MM NOT_NAMED 1939-08-14 12:00:00 NR 24.8047 120.470 main 30 30 __________P___ -1 24.8047 120.470 4 7 297
1939220N17145 1939 47 WP MM NOT_NAMED 1939-08-14 15:00:00 NR 24.9684 120.118 main 60 30 __________P___ -1 24.9684 120.118 4 7 297
1939220N17145 1939 47 WP MM NOT_NAMED 1939-08-14 18:00:00 NR 25.1261 119.765 main 30 11 __________P___ -1 25.1261 119.765 4 7 295
1939220N17145 1939 47 WP MM NOT_NAMED 1939-08-14 21:00:00 NR 25.2621 119.415 main 15 10 __________P___ -1 25.2621 119.415 4 7 292
1939220N17145 1939 47 WP MM NOT_NAMED 1939-08-14 22:00:00 NR 25.3000 119.300 main 10 0 __________O___ -1 25.3000 119.300 7 6 287
1939220N17145 1939 47 WP MM NOT_NAMED 1939-08-15 00:00:00 NR 25.3558 119.085 main 0 0 __________P___ -1 25.3558 119.085 7 6 283
1939220N17145 1939 47 WP MM NOT_NAMED 1939-08-15 03:00:00 NR 25.4145 118.770 main 0 0 __________P___ -1 25.4145 118.770 7 6 280
1939220N17145 1939 47 WP MM NOT_NAMED 1939-08-15 06:00:00 NR 25.4544 118.451 main 0 0 __________P___ -1 25.4544 118.451 7 6 277
1939220N17145 1939 47 WP MM NOT_NAMED 1939-08-15 09:00:00 NR 25.4880 118.117 main 0 0 __________P___ -1 25.4880 118.117 7 6 276
1939220N17145 1939 47 WP MM NOT_NAMED 1939-08-15 10:00:00 NR 25.5000 118.000 main 0 0 __________O___ -1 25.5000 118.000 7 7 277
1939220N17145 1939 47 WP MM NOT_NAMED 1939-08-15 12:00:00 NR 25.5270 117.756 main 0 0 __________P___ -1 25.5270 117.756 7 7 277
1939220N17145 1939 47 WP MM NOT_NAMED 1939-08-15 15:00:00 NR 25.5742 117.367 main 0 0 __________P___ -1 25.5742 117.367 7 7 278
1939220N17145 1939 47 WP MM NOT_NAMED 1939-08-15 18:00:00 NR 25.6267 116.960 main 0 0 __________P___ -1 25.6267 116.960 7 8 278
1939220N17145 1939 47 WP MM NOT_NAMED 1939-08-15 21:00:00 NR 25.6816 116.541 main 0 0 __________P___ -1 25.6816 116.541 7 8 278
1939220N17145 1939 47 WP MM NOT_NAMED 1939-08-15 22:00:00 NR 25.7000 116.400 main 0 __________O___ -1 25.7000 116.400 7 8 278

デジタル台風データ・検索

IBTrACS Databaseについて

本データベースは、米国NOAAが公開する1842年以降の世界の熱帯低気圧のベストトラックデータアーカイブInternational Best Track Archive for Climate Stewardship (IBTrACS)を、ウェブで閲覧しやすい形式に変換したものです。

最終更新日:2021-11-26